createdAt,value
2024-03-13T00:01:11.615Z,10.31
2024-03-13T00:03:43.913Z,10.45
2024-03-13T00:06:16.217Z,10.39
2024-03-13T00:08:47.858Z,10.37
2024-03-13T00:11:21.354Z,11.00
2024-03-13T00:13:53.134Z,10.38
2024-03-13T00:16:25.177Z,10.30
2024-03-13T00:18:57.103Z,10.48
2024-03-13T00:21:30.178Z,10.19
2024-03-13T00:24:01.995Z,9.77
2024-03-13T00:26:34.869Z,10.05
2024-03-13T00:29:06.667Z,10.62
2024-03-13T00:31:39.271Z,9.60
2024-03-13T00:34:11.522Z,10.11
2024-03-13T00:36:43.223Z,10.03
2024-03-13T00:39:15.965Z,10.48
2024-03-13T00:41:48.712Z,10.43
2024-03-13T00:44:20.349Z,10.30
2024-03-13T00:46:52.012Z,9.65
2024-03-13T00:49:23.725Z,9.92
2024-03-13T00:51:55.449Z,9.41
2024-03-13T00:54:29.461Z,9.10
2024-03-13T00:57:02.720Z,9.70
2024-03-13T00:59:35.317Z,10.08
2024-03-13T01:02:11.421Z,9.53
2024-03-13T01:04:46.781Z,9.33
2024-03-13T01:07:18.586Z,9.90
2024-03-13T01:09:51.191Z,10.08
2024-03-13T01:12:23.034Z,10.07
2024-03-13T01:14:54.691Z,8.93
2024-03-13T01:17:26.375Z,9.03
2024-03-13T01:19:58.461Z,9.91
2024-03-13T01:22:30.286Z,9.21
2024-03-13T01:25:02.039Z,9.28
2024-03-13T01:27:33.688Z,8.52
2024-03-13T01:30:06.083Z,8.96
2024-03-13T01:32:39.192Z,9.03
2024-03-13T01:35:14.350Z,9.35
2024-03-13T01:37:59.531Z,8.53
2024-03-13T01:40:54.906Z,9.14
2024-03-13T01:43:45.316Z,9.04
2024-03-13T01:46:38.350Z,9.35
2024-03-13T01:49:35.793Z,8.67
2024-03-13T01:52:30.792Z,9.33
2024-03-13T01:55:15.099Z,8.63
2024-03-13T01:58:02.073Z,8.41
2024-03-13T02:00:53.045Z,8.71
2024-03-13T02:03:28.006Z,8.50
2024-03-13T02:06:02.577Z,9.37
2024-03-13T02:08:34.452Z,9.71
2024-03-13T02:13:40.469Z,8.83
2024-03-13T02:16:12.288Z,9.03
2024-03-13T02:18:43.983Z,8.24
2024-03-13T02:21:15.730Z,8.85
2024-03-13T02:23:47.411Z,8.19
2024-03-13T02:26:20.251Z,8.49
2024-03-13T02:28:53.102Z,9.07
2024-03-13T02:31:24.827Z,8.74
2024-03-13T02:33:57.220Z,8.82
2024-03-13T02:36:29.596Z,8.69
2024-03-13T02:39:03.433Z,8.45
2024-03-13T02:41:35.667Z,8.82
2024-03-13T02:44:07.309Z,9.18
2024-03-13T02:46:39.137Z,8.79
2024-03-13T02:49:11.613Z,9.02
2024-03-13T02:51:43.282Z,9.04
2024-03-13T02:54:14.904Z,9.00
2024-03-13T02:56:47.756Z,8.70
2024-03-13T02:59:21.421Z,8.41
2024-03-13T03:01:53.776Z,8.01
2024-03-13T03:04:25.592Z,8.49
2024-03-13T03:06:57.424Z,8.86
2024-03-13T03:09:29.082Z,8.81
2024-03-13T03:12:00.699Z,8.24
2024-03-13T03:14:33.513Z,8.57
2024-03-13T03:17:05.124Z,8.31
2024-03-13T03:19:36.757Z,8.29
2024-03-13T03:22:09.856Z,8.95
2024-03-13T03:24:41.527Z,8.67
2024-03-13T03:27:14.221Z,8.55
2024-03-13T03:29:46.185Z,9.35
2024-03-13T03:32:18.021Z,9.09
2024-03-13T03:34:50.174Z,8.86
2024-03-13T03:37:22.420Z,9.91
2024-03-13T03:39:54.120Z,9.64
2024-03-13T03:42:25.847Z,10.00
2024-03-13T03:44:57.443Z,10.18
2024-03-13T03:47:29.093Z,10.11
2024-03-13T03:50:01.316Z,9.35
2024-03-13T03:52:33.052Z,9.85
2024-03-13T03:55:07.459Z,9.78
2024-03-13T03:57:42.003Z,9.85
2024-03-13T04:00:14.359Z,9.49
2024-03-13T04:02:45.933Z,9.47
2024-03-13T04:05:19.268Z,8.88
2024-03-13T04:07:52.612Z,9.69
2024-03-13T04:10:27.392Z,8.84
2024-03-13T04:12:59.611Z,9.79
2024-03-13T04:15:31.254Z,9.59
2024-03-13T04:18:04.917Z,9.25
2024-03-13T04:20:36.806Z,9.03
2024-03-13T04:23:08.761Z,9.03
2024-03-13T04:25:44.548Z,9.19
2024-03-13T04:28:16.873Z,9.35
2024-03-13T04:30:48.545Z,9.00
2024-03-13T04:33:20.942Z,9.60
2024-03-13T04:35:52.543Z,9.59
2024-03-13T04:38:25.587Z,9.81
2024-03-13T04:40:57.311Z,9.62
2024-03-13T04:43:29.016Z,9.11
2024-03-13T04:46:00.716Z,9.34
2024-03-13T04:48:32.738Z,9.75
2024-03-13T04:51:04.704Z,9.80
2024-03-13T04:53:37.234Z,10.11
2024-03-13T04:56:08.825Z,9.98
2024-03-13T04:58:41.099Z,9.61
2024-03-13T05:01:20.150Z,8.90
2024-03-13T05:03:52.515Z,9.10
2024-03-13T05:06:24.244Z,10.03
2024-03-13T05:08:56.214Z,9.27
2024-03-13T05:11:27.968Z,9.06
2024-03-13T05:13:59.662Z,9.01
2024-03-13T05:16:31.337Z,9.35
2024-03-13T05:19:03.034Z,8.99
2024-03-13T05:21:34.656Z,9.53
2024-03-13T05:24:08.028Z,9.40
2024-03-13T05:26:39.841Z,9.62
2024-03-13T05:29:11.801Z,9.05
2024-03-13T05:31:43.500Z,9.12
2024-03-13T05:34:15.280Z,9.16
2024-03-13T05:36:47.403Z,8.74
2024-03-13T05:39:19.133Z,8.47
2024-03-13T05:41:51.038Z,8.38
2024-03-13T05:44:22.695Z,8.35
2024-03-13T05:46:57.871Z,8.39
2024-03-13T05:49:29.662Z,8.72
2024-03-13T05:52:01.416Z,8.81
2024-03-13T05:54:33.472Z,8.81
2024-03-13T05:57:05.204Z,9.32
2024-03-13T05:59:36.970Z,10.02
2024-03-13T06:02:08.691Z,10.01
2024-03-13T06:04:40.440Z,9.70
2024-03-13T06:07:12.147Z,10.17
2024-03-13T06:09:43.814Z,9.73
2024-03-13T06:12:15.462Z,10.10
2024-03-13T06:14:47.521Z,9.52
2024-03-13T06:17:19.112Z,10.11
2024-03-13T06:19:50.827Z,9.54
2024-03-13T06:22:22.495Z,9.17
2024-03-13T06:24:56.740Z,8.96
2024-03-13T06:27:31.230Z,9.31
2024-03-13T06:30:04.542Z,9.73
2024-03-13T06:32:36.542Z,9.61
2024-03-13T06:35:08.566Z,9.63
2024-03-13T06:37:40.790Z,10.35
2024-03-13T06:40:12.550Z,9.96
2024-03-13T06:42:44.232Z,9.20
2024-03-13T06:45:21.388Z,10.01
2024-03-13T06:47:59.834Z,9.60
2024-03-13T06:50:32.339Z,9.45
2024-03-13T06:53:05.784Z,8.91
2024-03-13T06:55:37.759Z,8.99
2024-03-13T06:58:09.492Z,9.34
2024-03-13T07:00:42.448Z,8.75
2024-03-13T07:03:14.280Z,8.96
2024-03-13T07:05:46.024Z,9.30
2024-03-13T07:08:17.938Z,9.78
2024-03-13T07:10:49.792Z,9.55
2024-03-13T07:13:21.481Z,9.30
2024-03-13T07:15:53.425Z,8.76
2024-03-13T07:18:25.332Z,9.02
2024-03-13T07:20:57.045Z,9.36
2024-03-13T07:23:29.756Z,9.52
2024-03-13T07:26:02.121Z,9.60
2024-03-13T07:28:34.573Z,9.35
2024-03-13T07:31:08.655Z,10.32
2024-03-13T07:33:40.445Z,9.99
2024-03-13T07:36:12.139Z,10.55
2024-03-13T07:38:43.929Z,9.75
2024-03-13T07:41:16.473Z,9.73
2024-03-13T07:43:49.512Z,9.58
2024-03-13T07:46:21.187Z,9.93
2024-03-13T07:48:52.866Z,10.02
2024-03-13T07:51:24.589Z,10.24
2024-03-13T07:53:56.304Z,10.09
2024-03-13T07:56:27.913Z,9.44
2024-03-13T07:58:59.588Z,10.45
2024-03-13T08:01:31.342Z,10.96
2024-03-13T08:04:03.117Z,10.88
2024-03-13T09:06:15.456Z,10.07
2024-03-13T09:08:48.608Z,10.32
2024-03-13T09:11:20.818Z,9.30
2024-03-13T09:13:52.557Z,9.13
2024-03-13T09:16:24.219Z,10.21
2024-03-13T09:18:56.305Z,9.97
2024-03-13T09:21:28.132Z,8.95
2024-03-13T09:24:00.162Z,9.99
2024-03-13T09:26:37.845Z,10.30
2024-03-13T09:29:09.582Z,10.60
2024-03-13T09:31:43.914Z,10.13
2024-03-13T09:34:15.583Z,9.81
2024-03-13T09:36:47.235Z,10.54
2024-03-13T09:39:19.036Z,10.08
2024-03-13T09:41:56.729Z,10.14
2024-03-13T09:44:31.019Z,10.47
2024-03-13T09:47:06.661Z,10.33
2024-03-13T09:49:39.012Z,10.17
2024-03-13T09:52:15.914Z,10.04
2024-03-13T09:54:48.195Z,9.85
2024-03-13T09:57:21.731Z,10.18
2024-03-13T09:59:57.665Z,10.65
2024-03-13T10:02:36.931Z,10.91
2024-03-13T10:05:12.655Z,10.60
2024-03-13T10:07:46.862Z,10.37
2024-03-13T10:10:27.313Z,10.79
2024-03-13T10:13:02.946Z,10.95
2024-03-13T10:15:35.149Z,11.26
2024-03-13T10:18:20.948Z,10.96
2024-03-13T10:21:03.577Z,10.80
2024-03-13T10:23:40.117Z,11.39
2024-03-13T10:26:13.326Z,11.13
2024-03-13T10:28:45.014Z,12.35
2024-03-13T10:31:17.714Z,12.59
2024-03-13T10:33:50.909Z,11.44
2024-03-13T10:36:22.941Z,10.34
2024-03-13T10:38:58.007Z,11.44
2024-03-13T10:41:30.923Z,12.21
2024-03-13T10:44:04.818Z,12.38
2024-03-13T10:46:38.034Z,12.06
2024-03-13T10:49:16.894Z,12.28
2024-03-13T10:51:48.874Z,11.92
2024-03-13T10:54:20.706Z,12.37
2024-03-13T10:56:55.160Z,12.96
2024-03-13T10:59:30.276Z,11.55
2024-03-13T11:02:05.113Z,11.70
2024-03-13T11:04:38.026Z,12.21
2024-03-13T11:07:13.897Z,11.84
2024-03-13T11:09:45.761Z,12.69
2024-03-13T11:12:20.747Z,12.40
2024-03-13T11:14:57.167Z,11.95
2024-03-13T11:17:31.200Z,12.54
2024-03-13T11:20:08.475Z,12.46
2024-03-13T11:22:42.766Z,12.57
2024-03-13T11:25:19.702Z,12.38
2024-03-13T11:27:58.096Z,11.98
2024-03-13T11:30:30.353Z,12.20
2024-03-13T11:33:05.334Z,12.15
2024-03-13T11:35:37.430Z,12.49
2024-03-13T11:38:11.741Z,13.14
2024-03-13T11:40:43.711Z,12.47
2024-03-13T11:43:26.488Z,13.22
2024-03-13T11:46:00.761Z,12.09
2024-03-13T11:48:32.650Z,12.42
2024-03-13T11:51:07.719Z,12.69
2024-03-13T11:53:42.669Z,13.16
2024-03-13T11:56:22.475Z,13.66
2024-03-13T11:58:54.158Z,13.31
2024-03-13T12:01:27.618Z,12.67
2024-03-13T12:03:59.665Z,12.65
2024-03-13T12:06:39.077Z,12.42
2024-03-13T12:09:17.459Z,12.52
2024-03-13T12:11:55.596Z,12.07
2024-03-13T12:14:27.237Z,13.00
2024-03-13T12:17:00.338Z,12.61
2024-03-13T12:19:32.212Z,12.62
2024-03-13T12:22:03.971Z,12.61
2024-03-13T12:24:35.603Z,12.78
2024-03-13T12:27:09.240Z,12.18
2024-03-13T12:29:42.134Z,12.59
2024-03-13T12:32:14.463Z,12.27
2024-03-13T12:34:46.108Z,12.76
2024-03-13T12:37:18.041Z,12.21
2024-03-13T12:39:51.173Z,12.18
2024-03-13T12:42:26.528Z,12.59
2024-03-13T12:44:58.177Z,12.38
2024-03-13T12:47:29.925Z,12.50
2024-03-13T12:50:07.522Z,13.00
2024-03-13T12:52:40.039Z,13.11
2024-03-13T12:55:14.485Z,12.59
2024-03-13T12:57:49.711Z,13.41
2024-03-13T13:00:21.981Z,13.96
2024-03-13T13:02:55.179Z,13.38
2024-03-13T13:05:27.332Z,12.83
2024-03-13T13:08:00.393Z,12.11
2024-03-13T13:10:32.085Z,11.88
2024-03-13T13:13:03.941Z,12.70
2024-03-13T13:15:36.824Z,12.92
2024-03-13T13:18:10.262Z,12.94
2024-03-13T13:20:42.020Z,12.32
2024-03-13T13:23:14.266Z,12.29
2024-03-13T13:25:46.539Z,13.47
2024-03-13T13:28:19.898Z,12.92
2024-03-13T13:30:51.530Z,11.91
2024-03-13T13:33:23.636Z,12.62
2024-03-13T13:35:56.019Z,12.73
2024-03-13T13:38:30.086Z,13.00
2024-03-13T13:41:01.799Z,12.85
2024-03-13T13:43:33.772Z,12.61
2024-03-13T13:46:09.815Z,13.28
2024-03-13T13:48:42.502Z,12.41
2024-03-13T13:51:14.323Z,12.98
2024-03-13T13:53:46.039Z,11.97
2024-03-13T13:56:17.658Z,12.79
2024-03-13T13:58:51.498Z,13.39
2024-03-13T14:01:23.827Z,12.49
2024-03-13T14:03:55.568Z,12.04
2024-03-13T14:06:27.301Z,12.60
2024-03-13T14:09:01.420Z,12.22
2024-03-13T14:11:33.125Z,13.15
2024-03-13T14:14:04.813Z,13.04
2024-03-13T14:16:37.341Z,12.84
2024-03-13T14:19:16.151Z,12.91
2024-03-13T14:21:47.844Z,12.59
2024-03-13T14:24:19.556Z,12.57
2024-03-13T14:26:51.354Z,12.79
2024-03-13T14:29:26.077Z,12.80
2024-03-13T14:31:58.414Z,13.11
2024-03-13T14:34:30.004Z,12.92
2024-03-13T14:37:02.188Z,12.06
2024-03-13T14:39:33.941Z,12.36
2024-03-13T14:42:15.344Z,12.37
2024-03-13T14:44:50.891Z,13.08
2024-03-13T14:47:22.536Z,12.52
2024-03-13T14:49:54.711Z,12.62
2024-03-13T14:52:26.463Z,13.32
2024-03-13T14:54:58.379Z,12.81
2024-03-13T14:57:30.293Z,12.82
2024-03-13T15:00:02.007Z,12.64
2024-03-13T15:02:34.322Z,13.36
2024-03-13T15:05:08.368Z,13.29
2024-03-13T15:07:40.055Z,13.43
2024-03-13T15:10:12.714Z,13.43
2024-03-13T15:12:45.594Z,13.33
2024-03-13T15:15:17.465Z,13.39
2024-03-13T15:17:52.333Z,13.28
2024-03-13T15:20:24.882Z,13.21
2024-03-13T15:22:56.641Z,13.34
2024-03-13T15:25:28.566Z,13.42
2024-03-13T15:28:01.931Z,13.39
2024-03-13T15:30:33.684Z,13.72
2024-03-13T15:33:05.642Z,13.78
2024-03-13T15:35:39.403Z,13.61
2024-03-13T15:38:11.315Z,13.41
2024-03-13T15:40:43.062Z,13.34
2024-03-13T15:43:16.207Z,13.51
2024-03-13T15:45:48.613Z,13.50
2024-03-13T15:48:24.419Z,13.40
2024-03-13T15:50:56.433Z,13.47
2024-03-13T15:53:28.092Z,13.90
2024-03-13T15:56:00.009Z,14.09
2024-03-13T15:58:31.655Z,13.57
2024-03-13T16:01:05.745Z,13.20
2024-03-13T16:03:38.441Z,13.56
2024-03-13T16:06:11.148Z,13.69
2024-03-13T16:08:54.687Z,13.86
2024-03-13T16:11:29.911Z,12.95
2024-03-13T16:14:01.969Z,14.21
2024-03-13T16:16:35.021Z,14.27
2024-03-13T16:19:06.896Z,14.28
2024-03-13T16:21:38.596Z,13.82
2024-03-13T16:24:12.882Z,13.86
2024-03-13T16:26:45.368Z,13.66
2024-03-13T16:29:17.057Z,13.62
2024-03-13T16:31:49.032Z,13.50
2024-03-13T16:34:20.629Z,13.55
2024-03-13T16:36:52.409Z,13.34
2024-03-13T16:39:29.241Z,13.76
2024-03-13T16:42:00.936Z,13.87
2024-03-13T16:44:32.640Z,14.01
2024-03-13T16:47:04.595Z,13.98
2024-03-13T16:49:36.469Z,13.98
2024-03-13T16:52:08.155Z,14.08
2024-03-13T16:54:39.796Z,14.08
2024-03-13T16:57:11.560Z,13.90
2024-03-13T16:59:44.150Z,13.81
2024-03-13T17:02:16.377Z,14.00
2024-03-13T17:04:48.074Z,14.07
2024-03-13T17:07:19.744Z,14.05
2024-03-13T17:09:51.548Z,13.89
2024-03-13T17:12:23.179Z,14.04
2024-03-13T17:14:54.876Z,13.86
2024-03-13T17:17:26.876Z,13.72
2024-03-13T17:19:58.467Z,13.87
2024-03-13T17:22:30.163Z,13.74
2024-03-13T17:25:01.784Z,13.78
2024-03-13T17:27:33.659Z,13.76
2024-03-13T17:30:06.356Z,13.96
2024-03-13T17:32:39.175Z,13.93
2024-03-13T17:35:11.542Z,13.64
2024-03-13T17:37:43.826Z,13.72
2024-03-13T17:40:17.615Z,13.74
2024-03-13T17:42:49.462Z,13.70
2024-03-13T17:45:21.272Z,13.38
2024-03-13T17:47:52.991Z,13.01
2024-03-13T17:50:26.077Z,13.42
2024-03-13T17:52:58.405Z,13.34
2024-03-13T17:55:30.472Z,13.41
2024-03-13T17:58:02.156Z,13.61
2024-03-13T18:00:33.839Z,13.40
2024-03-13T18:03:05.742Z,13.36
2024-03-13T18:05:38.067Z,13.22
2024-03-13T18:08:09.703Z,13.50
2024-03-13T18:10:42.504Z,13.51
2024-03-13T18:13:14.986Z,13.65
2024-03-13T18:15:46.953Z,13.36
2024-03-13T18:18:18.634Z,13.16
2024-03-13T18:20:53.072Z,13.35
2024-03-13T18:23:24.686Z,13.35
2024-03-13T18:25:56.372Z,13.50
2024-03-13T18:28:29.810Z,13.61
2024-03-13T18:31:01.501Z,13.58
2024-03-13T18:33:34.251Z,12.94
2024-03-13T18:36:12.789Z,12.83
2024-03-13T18:38:44.437Z,13.18
2024-03-13T18:41:18.033Z,13.31
2024-03-13T18:43:49.689Z,13.57
2024-03-13T18:46:23.266Z,13.43
2024-03-13T18:48:58.057Z,13.52
2024-03-13T18:51:32.616Z,13.43
2024-03-13T18:54:06.792Z,13.36
2024-03-13T18:56:38.631Z,13.17
2024-03-13T18:59:11.422Z,13.21
2024-03-13T19:01:43.409Z,13.34
2024-03-13T19:04:15.133Z,13.27
2024-03-13T19:06:46.888Z,13.27
2024-03-13T19:09:21.459Z,13.37
2024-03-13T19:11:53.306Z,13.35
2024-03-13T19:14:24.975Z,13.24
2024-03-13T19:16:56.734Z,13.06
2024-03-13T19:19:28.492Z,13.10
2024-03-13T19:22:00.160Z,12.99
2024-03-13T19:24:36.166Z,12.87
2024-03-13T19:27:09.990Z,12.87
2024-03-13T19:29:41.882Z,12.95
2024-03-13T19:32:15.939Z,12.76
2024-03-13T19:34:47.642Z,12.66
2024-03-13T19:37:19.963Z,12.98
2024-03-13T19:39:51.613Z,12.82
2024-03-13T19:42:23.483Z,12.76
2024-03-13T19:44:56.181Z,12.49
2024-03-13T19:47:30.825Z,12.61
2024-03-13T19:50:02.614Z,12.54
2024-03-13T19:52:34.325Z,12.74
2024-03-13T19:55:07.171Z,12.64
2024-03-13T19:57:41.268Z,13.06
2024-03-13T20:00:15.162Z,13.05
2024-03-13T20:02:47.847Z,12.96
2024-03-13T20:05:19.658Z,12.65
2024-03-13T20:07:51.613Z,12.65
2024-03-13T20:10:26.443Z,12.39
2024-03-13T20:12:58.391Z,12.97
2024-03-13T20:15:30.523Z,13.11
2024-03-13T20:18:02.391Z,12.95
2024-03-13T20:20:37.563Z,12.70
2024-03-13T20:23:10.512Z,12.75
2024-03-13T20:25:42.134Z,12.70
2024-03-13T20:28:13.795Z,12.75
2024-03-13T20:30:45.629Z,12.71
2024-03-13T20:33:17.391Z,12.93
2024-03-13T20:35:49.231Z,12.71
2024-03-13T20:38:21.961Z,12.96
2024-03-13T20:40:53.621Z,12.91
2024-03-13T20:43:25.233Z,12.60
2024-03-13T20:45:56.888Z,12.80
2024-03-13T20:48:28.629Z,12.63
2024-03-13T20:51:00.526Z,12.59
2024-03-13T20:53:32.432Z,12.55
2024-03-13T20:56:06.752Z,12.88
2024-03-13T20:58:38.566Z,12.70
2024-03-13T21:01:13.047Z,12.89
2024-03-13T21:03:44.855Z,12.72
2024-03-13T21:06:18.357Z,12.90
2024-03-13T21:08:50.594Z,13.00
2024-03-13T21:11:23.496Z,13.14
2024-03-13T21:13:56.490Z,12.72
2024-03-13T21:16:28.232Z,12.73
2024-03-13T21:19:01.710Z,12.65
2024-03-13T21:21:33.493Z,12.85
2024-03-13T21:24:06.069Z,12.44
2024-03-13T21:26:41.562Z,12.73
2024-03-13T21:29:18.194Z,12.90
2024-03-13T21:31:50.470Z,12.73
2024-03-13T21:34:28.204Z,12.72
2024-03-13T21:37:05.602Z,12.64
2024-03-13T21:39:37.595Z,12.34
2024-03-13T21:42:09.463Z,12.57
2024-03-13T21:44:43.264Z,12.36
2024-03-13T21:47:15.104Z,12.36
2024-03-13T21:49:46.731Z,12.53
2024-03-13T21:52:18.372Z,12.55
2024-03-13T21:54:49.970Z,12.28
2024-03-13T21:57:23.368Z,12.20
2024-03-13T21:59:54.984Z,12.21
2024-03-13T22:02:26.840Z,12.37
2024-03-13T22:04:58.543Z,11.87
2024-03-13T22:07:30.612Z,12.12
2024-03-13T22:10:04.475Z,11.88
2024-03-13T22:12:36.332Z,11.73
2024-03-13T22:15:08.734Z,11.81
2024-03-13T22:17:40.474Z,11.54
2024-03-13T22:20:12.267Z,11.34
2024-03-13T22:22:44.584Z,11.11
2024-03-13T22:25:16.321Z,11.61
2024-03-13T22:27:48.131Z,11.57
2024-03-13T22:30:19.846Z,11.80
2024-03-13T22:32:51.613Z,11.71
2024-03-13T22:35:23.277Z,11.47
2024-03-13T22:37:54.914Z,11.25
2024-03-13T22:40:26.732Z,11.45
2024-03-13T22:42:58.627Z,11.54
2024-03-13T22:45:31.482Z,11.42
2024-03-13T22:48:04.822Z,11.39
2024-03-13T22:50:36.510Z,11.37
2024-03-13T22:53:08.325Z,11.19
2024-03-13T22:55:39.948Z,10.71
2024-03-13T22:58:11.633Z,11.23
2024-03-13T23:00:44.761Z,10.64
2024-03-13T23:03:16.785Z,10.57
2024-03-13T23:05:48.481Z,10.82
2024-03-13T23:08:20.185Z,10.32
2024-03-13T23:10:51.918Z,10.83
2024-03-13T23:13:23.845Z,10.84
2024-03-13T23:15:57.173Z,10.56
2024-03-13T23:18:29.290Z,10.76
2024-03-13T23:21:02.069Z,10.83
2024-03-13T23:23:33.843Z,10.75
2024-03-13T23:26:06.082Z,10.94
2024-03-13T23:28:37.763Z,10.92
2024-03-13T23:31:09.437Z,10.98
2024-03-13T23:33:41.196Z,10.89
2024-03-13T23:36:13.897Z,10.49
2024-03-13T23:38:45.712Z,10.83
2024-03-13T23:41:17.972Z,10.54
2024-03-13T23:43:49.586Z,10.97
2024-03-13T23:46:21.232Z,10.73
2024-03-13T23:48:52.996Z,11.02
2024-03-13T23:51:25.072Z,10.82
2024-03-13T23:53:56.842Z,10.46
2024-03-13T23:56:28.487Z,10.53
2024-03-13T23:59:00.427Z,10.71
